sensor_id;sensor_type;location;lat;lon;timestamp;P1;durP1;ratioP1;P2;durP2;ratioP2
82000;SDS011;71510;50.558;7.258;2023-07-29T00:01:41;6.37;;;2.55;;
82000;SDS011;71510;50.558;7.258;2023-07-29T00:04:09;4.47;;;2.47;;
82000;SDS011;71510;50.558;7.258;2023-07-29T00:06:36;2.50;;;1.98;;
82000;SDS011;71510;50.558;7.258;2023-07-29T00:09:03;6.75;;;2.42;;
82000;SDS011;71510;50.558;7.258;2023-07-29T00:11:31;3.27;;;1.70;;
82000;SDS011;71510;50.558;7.258;2023-07-29T00:14:00;5.33;;;2.10;;
82000;SDS011;71510;50.558;7.258;2023-07-29T00:16:28;5.03;;;1.65;;
82000;SDS011;71510;50.558;7.258;2023-07-29T00:18:55;6.35;;;1.72;;
82000;SDS011;71510;50.558;7.258;2023-07-29T00:21:22;11.75;;;2.25;;
82000;SDS011;71510;50.558;7.258;2023-07-29T00:23:50;4.62;;;2.00;;
82000;SDS011;71510;50.558;7.258;2023-07-29T00:26:17;6.87;;;2.52;;
82000;SDS011;71510;50.558;7.258;2023-07-29T00:28:44;17.20;;;3.12;;
82000;SDS011;71510;50.558;7.258;2023-07-29T00:31:11;4.83;;;3.50;;
82000;SDS011;71510;50.558;7.258;2023-07-29T00:33:39;4.70;;;3.75;;
82000;SDS011;71510;50.558;7.258;2023-07-29T00:36:06;6.25;;;3.00;;
82000;SDS011;71510;50.558;7.258;2023-07-29T00:38:33;3.95;;;1.92;;
82000;SDS011;71510;50.558;7.258;2023-07-29T00:41:02;4.55;;;1.95;;
82000;SDS011;71510;50.558;7.258;2023-07-29T00:43:30;4.78;;;1.72;;
82000;SDS011;71510;50.558;7.258;2023-07-29T00:45:57;3.77;;;1.40;;
82000;SDS011;71510;50.558;7.258;2023-07-29T00:48:25;3.47;;;1.90;;
82000;SDS011;71510;50.558;7.258;2023-07-29T00:50:53;3.85;;;1.35;;
82000;SDS011;71510;50.558;7.258;2023-07-29T00:53:20;5.28;;;1.60;;
82000;SDS011;71510;50.558;7.258;2023-07-29T00:55:48;10.03;;;2.10;;
82000;SDS011;71510;50.558;7.258;2023-07-29T00:58:15;5.53;;;1.90;;
82000;SDS011;71510;50.558;7.258;2023-07-29T01:00:42;7.72;;;1.60;;
82000;SDS011;71510;50.558;7.258;2023-07-29T01:03:10;4.87;;;1.85;;
82000;SDS011;71510;50.558;7.258;2023-07-29T01:05:44;5.03;;;1.30;;
82000;SDS011;71510;50.558;7.258;2023-07-29T01:08:09;5.65;;;1.90;;
82000;SDS011;71510;50.558;7.258;2023-07-29T01:13:33;3.50;;;1.70;;
82000;SDS011;71510;50.558;7.258;2023-07-29T01:16:00;3.60;;;1.50;;
82000;SDS011;71510;50.558;7.258;2023-07-29T01:18:32;2.72;;;1.30;;
82000;SDS011;71510;50.558;7.258;2023-07-29T01:21:00;3.65;;;1.47;;
82000;SDS011;71510;50.558;7.258;2023-07-29T01:23:31;4.08;;;1.27;;
82000;SDS011;71510;50.558;7.258;2023-07-29T01:25:59;5.87;;;1.32;;
82000;SDS011;71510;50.558;7.258;2023-07-29T01:28:26;2.72;;;1.32;;
82000;SDS011;71510;50.558;7.258;2023-07-29T01:30:58;6.97;;;1.20;;
82000;SDS011;71510;50.558;7.258;2023-07-29T01:33:26;6.78;;;1.50;;
82000;SDS011;71510;50.558;7.258;2023-07-29T01:35:55;3.35;;;1.17;;
82000;SDS011;71510;50.558;7.258;2023-07-29T01:38:38;5.25;;;1.70;;
82000;SDS011;71510;50.558;7.258;2023-07-29T01:41:07;4.62;;;1.52;;
82000;SDS011;71510;50.558;7.258;2023-07-29T01:43:34;4.55;;;1.42;;
82000;SDS011;71510;50.558;7.258;2023-07-29T01:46:03;4.05;;;1.40;;
82000;SDS011;71510;50.558;7.258;2023-07-29T01:48:31;2.25;;;1.10;;
82000;SDS011;71510;50.558;7.258;2023-07-29T01:50:58;2.70;;;1.32;;
82000;SDS011;71510;50.558;7.258;2023-07-29T01:53:25;4.97;;;1.55;;
82000;SDS011;71510;50.558;7.258;2023-07-29T01:55:52;11.48;;;1.70;;
82000;SDS011;71510;50.558;7.258;2023-07-29T01:58:20;3.90;;;1.12;;
82000;SDS011;71510;50.558;7.258;2023-07-29T02:00:47;1.90;;;1.52;;
82000;SDS011;71510;50.558;7.258;2023-07-29T02:03:14;3.47;;;1.42;;
82000;SDS011;71510;50.558;7.258;2023-07-29T02:05:42;4.10;;;1.40;;
82000;SDS011;71510;50.558;7.258;2023-07-29T02:08:10;3.45;;;1.72;;
82000;SDS011;71510;50.558;7.258;2023-07-29T02:10:37;4.47;;;1.52;;
82000;SDS011;71510;50.558;7.258;2023-07-29T02:13:05;5.22;;;1.82;;
82000;SDS011;71510;50.558;7.258;2023-07-29T02:15:32;6.03;;;3.45;;
82000;SDS011;71510;50.558;7.258;2023-07-29T02:18:00;9.95;;;5.25;;
82000;SDS011;71510;50.558;7.258;2023-07-29T02:20:28;9.03;;;8.08;;
82000;SDS011;71510;50.558;7.258;2023-07-29T02:22:55;11.03;;;9.20;;
82000;SDS011;71510;50.558;7.258;2023-07-29T02:25:23;12.28;;;11.08;;
82000;SDS011;71510;50.558;7.258;2023-07-29T02:27:50;13.00;;;10.58;;
82000;SDS011;71510;50.558;7.258;2023-07-29T02:30:17;11.20;;;10.10;;
82000;SDS011;71510;50.558;7.258;2023-07-29T02:32:45;14.10;;;11.25;;
82000;SDS011;71510;50.558;7.258;2023-07-29T02:35:12;12.90;;;10.50;;
82000;SDS011;71510;50.558;7.258;2023-07-29T02:37:39;11.68;;;9.90;;
82000;SDS011;71510;50.558;7.258;2023-07-29T02:40:07;13.40;;;6.87;;
82000;SDS011;71510;50.558;7.258;2023-07-29T02:42:34;12.20;;;5.37;;
82000;SDS011;71510;50.558;7.258;2023-07-29T02:45:02;7.95;;;5.10;;
82000;SDS011;71510;50.558;7.258;2023-07-29T02:47:29;7.78;;;5.20;;
82000;SDS011;71510;50.558;7.258;2023-07-29T02:49:56;6.62;;;4.00;;
82000;SDS011;71510;50.558;7.258;2023-07-29T02:52:24;7.12;;;4.17;;
82000;SDS011;71510;50.558;7.258;2023-07-29T02:54:51;4.80;;;2.50;;
82000;SDS011;71510;50.558;7.258;2023-07-29T02:57:18;8.50;;;2.77;;
82000;SDS011;71510;50.558;7.258;2023-07-29T02:59:46;4.70;;;1.90;;
82000;SDS011;71510;50.558;7.258;2023-07-29T03:02:13;5.28;;;2.08;;
82000;SDS011;71510;50.558;7.258;2023-07-29T03:04:42;8.13;;;2.17;;
82000;SDS011;71510;50.558;7.258;2023-07-29T03:07:09;4.40;;;2.15;;
82000;SDS011;71510;50.558;7.258;2023-07-29T03:09:38;6.78;;;2.15;;
82000;SDS011;71510;50.558;7.258;2023-07-29T03:12:05;9.00;;;2.20;;
82000;SDS011;71510;50.558;7.258;2023-07-29T03:14:32;4.45;;;1.92;;
82000;SDS011;71510;50.558;7.258;2023-07-29T03:17:03;5.83;;;1.95;;
82000;SDS011;71510;50.558;7.258;2023-07-29T03:19:30;9.60;;;1.57;;
82000;SDS011;71510;50.558;7.258;2023-07-29T03:21:58;6.45;;;2.05;;
82000;SDS011;71510;50.558;7.258;2023-07-29T03:24:25;3.10;;;1.95;;
82000;SDS011;71510;50.558;7.258;2023-07-29T03:26:52;5.70;;;1.85;;
82000;SDS011;71510;50.558;7.258;2023-07-29T03:29:20;6.60;;;2.20;;
82000;SDS011;71510;50.558;7.258;2023-07-29T03:31:47;2.95;;;1.82;;
82000;SDS011;71510;50.558;7.258;2023-07-29T03:34:14;9.33;;;2.52;;
82000;SDS011;71510;50.558;7.258;2023-07-29T03:36:42;3.45;;;1.80;;
82000;SDS011;71510;50.558;7.258;2023-07-29T03:39:09;7.10;;;2.77;;
82000;SDS011;71510;50.558;7.258;2023-07-29T03:41:36;3.00;;;1.98;;
82000;SDS011;71510;50.558;7.258;2023-07-29T03:44:03;3.77;;;2.20;;
82000;SDS011;71510;50.558;7.258;2023-07-29T03:46:31;7.05;;;1.82;;
82000;SDS011;71510;50.558;7.258;2023-07-29T03:48:58;3.33;;;2.20;;
82000;SDS011;71510;50.558;7.258;2023-07-29T03:51:26;6.08;;;2.15;;
82000;SDS011;71510;50.558;7.258;2023-07-29T03:53:53;5.92;;;2.55;;
82000;SDS011;71510;50.558;7.258;2023-07-29T03:56:20;8.00;;;2.40;;
82000;SDS011;71510;50.558;7.258;2023-07-29T03:58:47;5.72;;;3.33;;
82000;SDS011;71510;50.558;7.258;2023-07-29T04:01:15;7.15;;;2.83;;
82000;SDS011;71510;50.558;7.258;2023-07-29T04:03:44;8.73;;;3.02;;
82000;SDS011;71510;50.558;7.258;2023-07-29T04:06:12;7.67;;;3.37;;
82000;SDS011;71510;50.558;7.258;2023-07-29T04:08:39;6.72;;;3.30;;
82000;SDS011;71510;50.558;7.258;2023-07-29T04:11:08;4.95;;;2.80;;
82000;SDS011;71510;50.558;7.258;2023-07-29T04:13:35;5.97;;;3.45;;
82000;SDS011;71510;50.558;7.258;2023-07-29T04:16:04;5.00;;;3.87;;
82000;SDS011;71510;50.558;7.258;2023-07-29T04:18:31;4.80;;;4.17;;
82000;SDS011;71510;50.558;7.258;2023-07-29T04:20:59;5.10;;;3.45;;
82000;SDS011;71510;50.558;7.258;2023-07-29T04:23:26;5.87;;;4.53;;
82000;SDS011;71510;50.558;7.258;2023-07-29T04:25:53;8.25;;;5.58;;
82000;SDS011;71510;50.558;7.258;2023-07-29T04:28:21;14.60;;;6.22;;
82000;SDS011;71510;50.558;7.258;2023-07-29T04:30:48;9.80;;;5.87;;
82000;SDS011;71510;50.558;7.258;2023-07-29T04:33:15;7.58;;;5.53;;
82000;SDS011;71510;50.558;7.258;2023-07-29T04:35:43;6.28;;;5.70;;
82000;SDS011;71510;50.558;7.258;2023-07-29T04:38:10;13.60;;;7.03;;
82000;SDS011;71510;50.558;7.258;2023-07-29T04:40:37;8.50;;;6.47;;
82000;SDS011;71510;50.558;7.258;2023-07-29T04:43:05;11.55;;;6.58;;
82000;SDS011;71510;50.558;7.258;2023-07-29T04:45:32;11.25;;;6.90;;
82000;SDS011;71510;50.558;7.258;2023-07-29T04:47:59;9.50;;;7.33;;
82000;SDS011;71510;50.558;7.258;2023-07-29T04:50:26;13.00;;;6.75;;
82000;SDS011;71510;50.558;7.258;2023-07-29T04:52:54;14.28;;;7.37;;
82000;SDS011;71510;50.558;7.258;2023-07-29T04:55:21;9.58;;;6.53;;
82000;SDS011;71510;50.558;7.258;2023-07-29T04:57:48;11.35;;;7.15;;
82000;SDS011;71510;50.558;7.258;2023-07-29T05:00:16;10.00;;;7.42;;
82000;SDS011;71510;50.558;7.258;2023-07-29T05:02:43;14.25;;;7.00;;
82000;SDS011;71510;50.558;7.258;2023-07-29T05:05:10;11.48;;;6.78;;
82000;SDS011;71510;50.558;7.258;2023-07-29T05:07:38;14.00;;;7.53;;
82000;SDS011;71510;50.558;7.258;2023-07-29T05:10:05;14.40;;;7.97;;
82000;SDS011;71510;50.558;7.258;2023-07-29T05:12:33;14.38;;;8.43;;
82000;SDS011;71510;50.558;7.258;2023-07-29T05:15:00;8.83;;;7.47;;
82000;SDS011;71510;50.558;7.258;2023-07-29T05:17:27;11.80;;;8.03;;
82000;SDS011;71510;50.558;7.258;2023-07-29T05:19:55;12.75;;;9.05;;
82000;SDS011;71510;50.558;7.258;2023-07-29T05:22:22;13.43;;;7.85;;
82000;SDS011;71510;50.558;7.258;2023-07-29T05:24:49;9.80;;;8.03;;
82000;SDS011;71510;50.558;7.258;2023-07-29T05:27:17;18.98;;;8.05;;
82000;SDS011;71510;50.558;7.258;2023-07-29T05:29:44;9.93;;;6.33;;
82000;SDS011;71510;50.558;7.258;2023-07-29T05:32:11;10.28;;;6.33;;
82000;SDS011;71510;50.558;7.258;2023-07-29T05:34:39;10.48;;;5.85;;
82000;SDS011;71510;50.558;7.258;2023-07-29T05:37:06;10.03;;;6.28;;
82000;SDS011;71510;50.558;7.258;2023-07-29T05:39:33;9.48;;;5.55;;
82000;SDS011;71510;50.558;7.258;2023-07-29T05:42:00;8.55;;;5.87;;
82000;SDS011;71510;50.558;7.258;2023-07-29T05:44:29;13.13;;;6.90;;
82000;SDS011;71510;50.558;7.258;2023-07-29T05:46:57;8.10;;;6.05;;
82000;SDS011;71510;50.558;7.258;2023-07-29T05:49:24;10.72;;;7.28;;
82000;SDS011;71510;50.558;7.258;2023-07-29T05:51:51;10.55;;;6.80;;
82000;SDS011;71510;50.558;7.258;2023-07-29T05:54:19;12.15;;;6.75;;
82000;SDS011;71510;50.558;7.258;2023-07-29T05:56:46;10.38;;;7.83;;
82000;SDS011;71510;50.558;7.258;2023-07-29T05:59:14;9.20;;;6.47;;
82000;SDS011;71510;50.558;7.258;2023-07-29T06:01:41;13.22;;;6.50;;
82000;SDS011;71510;50.558;7.258;2023-07-29T06:04:08;11.08;;;6.53;;
82000;SDS011;71510;50.558;7.258;2023-07-29T06:06:36;6.22;;;5.40;;
82000;SDS011;71510;50.558;7.258;2023-07-29T06:09:03;6.72;;;5.12;;
82000;SDS011;71510;50.558;7.258;2023-07-29T06:11:30;6.78;;;5.22;;
82000;SDS011;71510;50.558;7.258;2023-07-29T06:13:58;5.60;;;5.05;;
82000;SDS011;71510;50.558;7.258;2023-07-29T06:16:25;7.83;;;4.62;;
82000;SDS011;71510;50.558;7.258;2023-07-29T06:18:52;9.73;;;6.47;;
82000;SDS011;71510;50.558;7.258;2023-07-29T06:21:20;10.72;;;5.53;;
82000;SDS011;71510;50.558;7.258;2023-07-29T06:23:47;8.70;;;5.90;;
82000;SDS011;71510;50.558;7.258;2023-07-29T06:26:15;6.50;;;5.30;;
82000;SDS011;71510;50.558;7.258;2023-07-29T06:28:42;5.42;;;4.47;;
82000;SDS011;71510;50.558;7.258;2023-07-29T06:31:09;11.08;;;4.67;;
82000;SDS011;71510;50.558;7.258;2023-07-29T06:33:36;9.75;;;4.42;;
82000;SDS011;71510;50.558;7.258;2023-07-29T06:36:04;6.55;;;5.15;;
82000;SDS011;71510;50.558;7.258;2023-07-29T06:38:31;8.73;;;4.83;;
82000;SDS011;71510;50.558;7.258;2023-07-29T06:40:58;9.05;;;4.20;;
82000;SDS011;71510;50.558;7.258;2023-07-29T06:43:26;6.65;;;5.05;;
82000;SDS011;71510;50.558;7.258;2023-07-29T06:45:53;9.85;;;5.10;;
82000;SDS011;71510;50.558;7.258;2023-07-29T06:48:21;6.80;;;5.60;;
82000;SDS011;71510;50.558;7.258;2023-07-29T06:50:49;7.10;;;5.70;;
82000;SDS011;71510;50.558;7.258;2023-07-29T06:53:17;9.98;;;5.45;;
82000;SDS011;71510;50.558;7.258;2023-07-29T06:55:44;9.43;;;5.62;;
82000;SDS011;71510;50.558;7.258;2023-07-29T06:58:11;11.48;;;5.20;;
82000;SDS011;71510;50.558;7.258;2023-07-29T07:00:38;9.53;;;4.28;;
82000;SDS011;71510;50.558;7.258;2023-07-29T07:03:06;5.12;;;4.10;;
82000;SDS011;71510;50.558;7.258;2023-07-29T07:05:33;6.30;;;3.98;;
82000;SDS011;71510;50.558;7.258;2023-07-29T07:08:00;8.00;;;3.75;;
82000;SDS011;71510;50.558;7.258;2023-07-29T07:10:28;4.55;;;3.33;;
82000;SDS011;71510;50.558;7.258;2023-07-29T07:12:55;4.03;;;2.98;;
82000;SDS011;71510;50.558;7.258;2023-07-29T07:15:23;6.05;;;3.35;;
82000;SDS011;71510;50.558;7.258;2023-07-29T07:17:50;7.65;;;3.50;;
82000;SDS011;71510;50.558;7.258;2023-07-29T07:20:18;5.53;;;3.15;;
82000;SDS011;71510;50.558;7.258;2023-07-29T07:22:45;5.00;;;3.25;;
82000;SDS011;71510;50.558;7.258;2023-07-29T07:25:12;3.80;;;2.35;;
82000;SDS011;71510;50.558;7.258;2023-07-29T07:27:40;6.37;;;3.17;;
82000;SDS011;71510;50.558;7.258;2023-07-29T07:30:07;8.83;;;3.45;;
82000;SDS011;71510;50.558;7.258;2023-07-29T07:32:34;3.08;;;2.77;;
82000;SDS011;71510;50.558;7.258;2023-07-29T07:35:02;2.87;;;1.67;;
82000;SDS011;71510;50.558;7.258;2023-07-29T07:37:30;6.67;;;1.80;;
82000;SDS011;71510;50.558;7.258;2023-07-29T07:39:57;3.80;;;1.40;;
82000;SDS011;71510;50.558;7.258;2023-07-29T07:42:25;3.20;;;1.20;;
82000;SDS011;71510;50.558;7.258;2023-07-29T07:44:52;2.87;;;2.12;;
82000;SDS011;71510;50.558;7.258;2023-07-29T07:47:19;6.40;;;1.90;;
82000;SDS011;71510;50.558;7.258;2023-07-29T07:49:47;4.47;;;1.60;;
82000;SDS011;71510;50.558;7.258;2023-07-29T07:52:16;2.90;;;1.80;;
82000;SDS011;71510;50.558;7.258;2023-07-29T07:54:43;2.90;;;1.40;;
82000;SDS011;71510;50.558;7.258;2023-07-29T07:57:10;2.08;;;1.40;;
82000;SDS011;71510;50.558;7.258;2023-07-29T07:59:38;1.15;;;1.05;;
82000;SDS011;71510;50.558;7.258;2023-07-29T08:02:05;2.83;;;0.88;;
82000;SDS011;71510;50.558;7.258;2023-07-29T08:04:32;1.10;;;1.00;;
82000;SDS011;71510;50.558;7.258;2023-07-29T08:07:00;1.98;;;1.12;;
82000;SDS011;71510;50.558;7.258;2023-07-29T08:09:27;1.42;;;0.90;;
82000;SDS011;71510;50.558;7.258;2023-07-29T08:11:54;4.55;;;1.10;;
82000;SDS011;71510;50.558;7.258;2023-07-29T08:14:21;3.17;;;1.17;;
82000;SDS011;71510;50.558;7.258;2023-07-29T08:16:49;3.72;;;1.17;;
82000;SDS011;71510;50.558;7.258;2023-07-29T08:19:16;3.90;;;1.05;;
82000;SDS011;71510;50.558;7.258;2023-07-29T08:21:43;4.42;;;1.12;;
82000;SDS011;71510;50.558;7.258;2023-07-29T08:24:11;2.87;;;1.10;;
82000;SDS011;71510;50.558;7.258;2023-07-29T08:26:38;3.50;;;1.35;;
82000;SDS011;71510;50.558;7.258;2023-07-29T08:29:05;10.82;;;1.85;;
82000;SDS011;71510;50.558;7.258;2023-07-29T08:31:33;2.65;;;1.47;;
82000;SDS011;71510;50.558;7.258;2023-07-29T08:34:00;2.15;;;1.25;;
82000;SDS011;71510;50.558;7.258;2023-07-29T08:36:27;4.42;;;1.27;;
82000;SDS011;71510;50.558;7.258;2023-07-29T08:38:55;7.45;;;1.60;;
82000;SDS011;71510;50.558;7.258;2023-07-29T08:41:26;1.55;;;1.05;;
82000;SDS011;71510;50.558;7.258;2023-07-29T08:46:32;6.80;;;1.25;;
82000;SDS011;71510;50.558;7.258;2023-07-29T08:48:59;2.67;;;1.25;;
82000;SDS011;71510;50.558;7.258;2023-07-29T08:51:28;1.92;;;1.20;;
82000;SDS011;71510;50.558;7.258;2023-07-29T08:53:56;1.80;;;1.00;;
82000;SDS011;71510;50.558;7.258;2023-07-29T08:56:23;1.65;;;1.15;;
82000;SDS011;71510;50.558;7.258;2023-07-29T08:58:51;8.93;;;1.90;;
82000;SDS011;71510;50.558;7.258;2023-07-29T09:01:19;3.67;;;1.47;;
82000;SDS011;71510;50.558;7.258;2023-07-29T09:03:46;2.47;;;1.15;;
82000;SDS011;71510;50.558;7.258;2023-07-29T09:06:14;3.58;;;1.55;;
82000;SDS011;71510;50.558;7.258;2023-07-29T09:08:41;3.83;;;1.42;;
82000;SDS011;71510;50.558;7.258;2023-07-29T09:11:09;1.87;;;1.15;;
82000;SDS011;71510;50.558;7.258;2023-07-29T09:13:37;1.95;;;1.50;;
82000;SDS011;71510;50.558;7.258;2023-07-29T09:16:04;2.02;;;1.40;;
82000;SDS011;71510;50.558;7.258;2023-07-29T09:18:31;1.05;;;1.00;;
82000;SDS011;71510;50.558;7.258;2023-07-29T09:20:59;4.58;;;1.67;;
82000;SDS011;71510;50.558;7.258;2023-07-29T09:23:27;1.57;;;1.40;;
82000;SDS011;71510;50.558;7.258;2023-07-29T09:26:01;2.72;;;1.45;;
82000;SDS011;71510;50.558;7.258;2023-07-29T09:28:32;1.65;;;1.40;;
82000;SDS011;71510;50.558;7.258;2023-07-29T09:30:58;2.65;;;1.22;;
82000;SDS011;71510;50.558;7.258;2023-07-29T09:33:26;1.42;;;1.20;;
82000;SDS011;71510;50.558;7.258;2023-07-29T09:35:53;1.98;;;1.60;;
82000;SDS011;71510;50.558;7.258;2023-07-29T09:38:25;1.27;;;1.10;;
82000;SDS011;71510;50.558;7.258;2023-07-29T09:40:50;2.72;;;1.65;;
82000;SDS011;71510;50.558;7.258;2023-07-29T09:43:18;4.58;;;1.30;;
82000;SDS011;71510;50.558;7.258;2023-07-29T09:45:46;1.82;;;1.10;;
82000;SDS011;71510;50.558;7.258;2023-07-29T09:48:13;2.00;;;1.12;;
82000;SDS011;71510;50.558;7.258;2023-07-29T09:50:40;3.42;;;1.40;;
82000;SDS011;71510;50.558;7.258;2023-07-29T09:53:08;4.37;;;1.52;;
82000;SDS011;71510;50.558;7.258;2023-07-29T09:55:35;2.08;;;1.30;;
82000;SDS011;71510;50.558;7.258;2023-07-29T09:58:02;2.83;;;1.45;;
82000;SDS011;71510;50.558;7.258;2023-07-29T10:00:31;2.95;;;1.42;;
82000;SDS011;71510;50.558;7.258;2023-07-29T10:02:59;2.67;;;1.50;;
82000;SDS011;71510;50.558;7.258;2023-07-29T10:05:27;5.53;;;1.95;;
82000;SDS011;71510;50.558;7.258;2023-07-29T10:07:55;2.85;;;1.50;;
82000;SDS011;71510;50.558;7.258;2023-07-29T10:10:22;2.55;;;1.42;;
82000;SDS011;71510;50.558;7.258;2023-07-29T10:12:50;3.52;;;1.57;;
82000;SDS011;71510;50.558;7.258;2023-07-29T10:15:17;2.52;;;1.37;;
82000;SDS011;71510;50.558;7.258;2023-07-29T10:17:44;1.60;;;1.20;;
82000;SDS011;71510;50.558;7.258;2023-07-29T10:20:12;1.72;;;1.40;;
82000;SDS011;71510;50.558;7.258;2023-07-29T10:22:40;3.17;;;2.22;;
82000;SDS011;71510;50.558;7.258;2023-07-29T10:25:13;2.15;;;1.05;;
82000;SDS011;71510;50.558;7.258;2023-07-29T10:27:43;3.37;;;1.70;;
82000;SDS011;71510;50.558;7.258;2023-07-29T10:30:11;2.40;;;1.65;;
82000;SDS011;71510;50.558;7.258;2023-07-29T10:32:41;2.45;;;1.22;;
82000;SDS011;71510;50.558;7.258;2023-07-29T10:35:08;2.58;;;1.50;;
82000;SDS011;71510;50.558;7.258;2023-07-29T10:37:36;1.80;;;1.57;;
82000;SDS011;71510;50.558;7.258;2023-07-29T10:40:05;3.00;;;1.30;;
82000;SDS011;71510;50.558;7.258;2023-07-29T10:42:33;3.17;;;1.30;;
82000;SDS011;71510;50.558;7.258;2023-07-29T10:45:02;1.98;;;1.42;;
82000;SDS011;71510;50.558;7.258;2023-07-29T10:47:29;2.35;;;1.22;;
82000;SDS011;71510;50.558;7.258;2023-07-29T10:49:57;2.37;;;1.60;;
82000;SDS011;71510;50.558;7.258;2023-07-29T10:52:40;4.83;;;1.37;;
82000;SDS011;71510;50.558;7.258;2023-07-29T10:55:00;1.32;;;1.20;;
82000;SDS011;71510;50.558;7.258;2023-07-29T10:57:31;2.55;;;1.30;;
82000;SDS011;71510;50.558;7.258;2023-07-29T10:59:59;5.55;;;1.62;;
82000;SDS011;71510;50.558;7.258;2023-07-29T11:02:35;1.95;;;1.10;;
82000;SDS011;71510;50.558;7.258;2023-07-29T11:04:59;2.47;;;1.12;;
82000;SDS011;71510;50.558;7.258;2023-07-29T11:07:26;1.22;;;1.00;;
82000;SDS011;71510;50.558;7.258;2023-07-29T11:09:55;2.10;;;1.20;;
82000;SDS011;71510;50.558;7.258;2023-07-29T11:15:03;3.20;;;1.50;;
82000;SDS011;71510;50.558;7.258;2023-07-29T11:17:32;3.50;;;1.40;;
82000;SDS011;71510;50.558;7.258;2023-07-29T11:20:02;2.83;;;1.37;;
82000;SDS011;71510;50.558;7.258;2023-07-29T11:22:30;4.22;;;1.42;;
82000;SDS011;71510;50.558;7.258;2023-07-29T11:24:57;4.53;;;1.75;;
82000;SDS011;71510;50.558;7.258;2023-07-29T11:27:24;3.95;;;1.22;;
82000;SDS011;71510;50.558;7.258;2023-07-29T11:30:02;5.20;;;1.90;;
82000;SDS011;71510;50.558;7.258;2023-07-29T11:32:31;2.17;;;1.20;;
82000;SDS011;71510;50.558;7.258;2023-07-29T11:35:06;2.85;;;1.72;;
82000;SDS011;71510;50.558;7.258;2023-07-29T11:37:32;2.72;;;1.47;;
82000;SDS011;71510;50.558;7.258;2023-07-29T11:40:00;4.60;;;1.95;;
82000;SDS011;71510;50.558;7.258;2023-07-29T11:42:28;3.67;;;2.15;;
82000;SDS011;71510;50.558;7.258;2023-07-29T11:44:58;3.42;;;1.72;;
82000;SDS011;71510;50.558;7.258;2023-07-29T11:47:26;2.62;;;1.50;;
82000;SDS011;71510;50.558;7.258;2023-07-29T11:49:54;2.60;;;1.50;;
82000;SDS011;71510;50.558;7.258;2023-07-29T11:52:21;1.95;;;1.20;;
82000;SDS011;71510;50.558;7.258;2023-07-29T11:54:49;3.27;;;1.30;;
82000;SDS011;71510;50.558;7.258;2023-07-29T11:57:17;2.25;;;1.30;;
82000;SDS011;71510;50.558;7.258;2023-07-29T11:59:47;2.33;;;1.30;;
82000;SDS011;71510;50.558;7.258;2023-07-29T12:02:20;1.70;;;1.55;;
82000;SDS011;71510;50.558;7.258;2023-07-29T12:04:43;1.50;;;1.40;;
82000;SDS011;71510;50.558;7.258;2023-07-29T12:07:12;1.30;;;1.20;;
82000;SDS011;71510;50.558;7.258;2023-07-29T12:09:40;2.45;;;1.30;;
82000;SDS011;71510;50.558;7.258;2023-07-29T12:12:08;1.92;;;1.17;;
82000;SDS011;71510;50.558;7.258;2023-07-29T12:14:36;0.90;;;0.88;;
82000;SDS011;71510;50.558;7.258;2023-07-29T12:17:04;1.07;;;0.90;;
82000;SDS011;71510;50.558;7.258;2023-07-29T12:19:35;2.33;;;1.15;;
82000;SDS011;71510;50.558;7.258;2023-07-29T12:22:04;0.75;;;0.75;;
82000;SDS011;71510;50.558;7.258;2023-07-29T12:24:32;2.37;;;0.85;;
82000;SDS011;71510;50.558;7.258;2023-07-29T12:27:00;1.02;;;0.85;;
82000;SDS011;71510;50.558;7.258;2023-07-29T12:29:27;1.40;;;1.30;;
82000;SDS011;71510;50.558;7.258;2023-07-29T12:32:01;4.75;;;1.17;;
82000;SDS011;71510;50.558;7.258;2023-07-29T12:34:30;0.88;;;0.65;;
82000;SDS011;71510;50.558;7.258;2023-07-29T12:36:58;2.37;;;0.82;;
82000;SDS011;71510;50.558;7.258;2023-07-29T12:39:26;1.10;;;0.95;;
82000;SDS011;71510;50.558;7.258;2023-07-29T12:41:54;1.45;;;1.20;;
82000;SDS011;71510;50.558;7.258;2023-07-29T12:44:23;1.07;;;0.98;;
82000;SDS011;71510;50.558;7.258;2023-07-29T12:46:50;1.10;;;0.98;;
82000;SDS011;71510;50.558;7.258;2023-07-29T12:49:17;1.25;;;1.02;;
82000;SDS011;71510;50.558;7.258;2023-07-29T12:51:46;1.70;;;1.60;;
82000;SDS011;71510;50.558;7.258;2023-07-29T12:54:13;1.75;;;1.25;;
82000;SDS011;71510;50.558;7.258;2023-07-29T12:56:41;0.93;;;0.93;;
82000;SDS011;71510;50.558;7.258;2023-07-29T12:59:08;1.82;;;1.10;;
82000;SDS011;71510;50.558;7.258;2023-07-29T13:01:35;3.55;;;1.07;;
82000;SDS011;71510;50.558;7.258;2023-07-29T13:04:03;1.70;;;1.25;;
82000;SDS011;71510;50.558;7.258;2023-07-29T13:06:30;1.37;;;1.27;;
82000;SDS011;71510;50.558;7.258;2023-07-29T13:08:57;1.72;;;1.25;;
82000;SDS011;71510;50.558;7.258;2023-07-29T13:11:24;1.20;;;0.98;;
82000;SDS011;71510;50.558;7.258;2023-07-29T13:13:52;3.42;;;1.35;;
82000;SDS011;71510;50.558;7.258;2023-07-29T13:16:19;1.87;;;1.15;;
82000;SDS011;71510;50.558;7.258;2023-07-29T13:18:47;2.33;;;1.47;;
82000;SDS011;71510;50.558;7.258;2023-07-29T13:21:14;1.65;;;1.15;;
82000;SDS011;71510;50.558;7.258;2023-07-29T13:23:41;1.20;;;1.10;;
82000;SDS011;71510;50.558;7.258;2023-07-29T13:26:09;1.52;;;1.20;;
82000;SDS011;71510;50.558;7.258;2023-07-29T13:28:37;1.05;;;0.95;;
82000;SDS011;71510;50.558;7.258;2023-07-29T13:31:04;1.25;;;1.15;;
82000;SDS011;71510;50.558;7.258;2023-07-29T13:33:32;4.00;;;1.15;;
82000;SDS011;71510;50.558;7.258;2023-07-29T13:36:00;2.33;;;1.20;;
82000;SDS011;71510;50.558;7.258;2023-07-29T13:38:30;1.27;;;1.17;;
82000;SDS011;71510;50.558;7.258;2023-07-29T13:40:57;1.30;;;1.20;;
82000;SDS011;71510;50.558;7.258;2023-07-29T13:43:25;3.62;;;1.30;;
82000;SDS011;71510;50.558;7.258;2023-07-29T13:45:52;1.77;;;1.42;;
82000;SDS011;71510;50.558;7.258;2023-07-29T13:48:19;1.85;;;1.27;;
82000;SDS011;71510;50.558;7.258;2023-07-29T13:50:47;2.65;;;1.50;;
82000;SDS011;71510;50.558;7.258;2023-07-29T13:53:14;1.85;;;1.22;;
82000;SDS011;71510;50.558;7.258;2023-07-29T13:55:41;4.03;;;1.50;;
82000;SDS011;71510;50.558;7.258;2023-07-29T13:58:09;3.65;;;1.55;;
82000;SDS011;71510;50.558;7.258;2023-07-29T14:00:36;2.47;;;1.02;;
82000;SDS011;71510;50.558;7.258;2023-07-29T14:03:03;2.77;;;1.30;;
82000;SDS011;71510;50.558;7.258;2023-07-29T14:05:30;4.80;;;1.22;;
82000;SDS011;71510;50.558;7.258;2023-07-29T14:07:58;3.37;;;1.40;;
82000;SDS011;71510;50.558;7.258;2023-07-29T14:10:25;2.25;;;1.10;;
82000;SDS011;71510;50.558;7.258;2023-07-29T14:12:52;1.95;;;1.55;;
82000;SDS011;71510;50.558;7.258;2023-07-29T14:15:20;1.50;;;1.40;;
82000;SDS011;71510;50.558;7.258;2023-07-29T14:17:48;1.55;;;1.45;;
82000;SDS011;71510;50.558;7.258;2023-07-29T14:20:15;1.72;;;1.45;;
82000;SDS011;71510;50.558;7.258;2023-07-29T14:22:42;1.42;;;1.32;;
82000;SDS011;71510;50.558;7.258;2023-07-29T14:25:09;1.50;;;1.25;;
82000;SDS011;71510;50.558;7.258;2023-07-29T14:27:38;1.98;;;1.50;;
82000;SDS011;71510;50.558;7.258;2023-07-29T14:30:05;2.08;;;1.50;;
82000;SDS011;71510;50.558;7.258;2023-07-29T14:32:33;1.50;;;1.22;;
82000;SDS011;71510;50.558;7.258;2023-07-29T14:35:00;1.27;;;1.17;;
82000;SDS011;71510;50.558;7.258;2023-07-29T14:37:30;2.22;;;1.50;;
82000;SDS011;71510;50.558;7.258;2023-07-29T14:39:57;1.57;;;1.10;;
82000;SDS011;71510;50.558;7.258;2023-07-29T14:42:25;1.85;;;1.30;;
82000;SDS011;71510;50.558;7.258;2023-07-29T14:44:52;3.15;;;1.32;;
82000;SDS011;71510;50.558;7.258;2023-07-29T14:47:20;1.02;;;0.90;;
82000;SDS011;71510;50.558;7.258;2023-07-29T14:49:47;1.30;;;1.20;;
82000;SDS011;71510;50.558;7.258;2023-07-29T14:52:14;1.32;;;1.00;;
82000;SDS011;71510;50.558;7.258;2023-07-29T14:54:42;1.72;;;1.12;;
82000;SDS011;71510;50.558;7.258;2023-07-29T14:57:09;3.27;;;1.20;;